Time;durP1;ratioP1;P1;durP2;ratioP2;P2;SDS_P1;SDS_P2;PMS_P1;PMS_P2;Temp;Humidity;BMP_temperature;BMP_pressure;BME280_temperature;BME280_humidity;BME280_pressure;Samples;Min_cycle;Max_cycle;Signal;HPM_P1;HPM_P2
2021/11/15 00:00:36;;;;;;;43.45;21.75;;;;;;;4.79;100.00;101911.98;1778896;78;21137;-61
2021/11/15 00:03:03;;;;;;;48.75;22.95;;;;;;;4.75;100.00;101907.50;1776909;78;21053;-61
2021/11/15 00:05:29;;;;;;;45.88;23.15;;;;;;;4.73;100.00;101905.27;1779385;78;20953;-61
2021/11/15 00:07:56;;;;;;;46.83;23.47;;;;;;;4.63;100.00;101908.75;1777010;78;21072;-61
2021/11/15 00:10:23;;;;;;;47.90;22.32;;;;;;;4.63;100.00;101908.75;1781509;78;21523;-61
2021/11/15 00:12:51;;;;;;;48.42;22.35;;;;;;;4.56;100.00;101905.14;1780353;79;21040;-61
2021/11/15 00:15:19;;;;;;;45.00;22.00;;;;;;;4.54;100.00;101908.23;1777252;78;21077;-61
2021/11/15 00:17:48;;;;;;;50.67;23.55;;;;;;;4.48;100.00;101910.39;1781417;79;20996;-61
2021/11/15 00:20:16;;;;;;;44.55;22.93;;;;;;;4.42;100.00;101909.02;1779422;79;21532;-61
2021/11/15 00:22:42;;;;;;;43.45;22.70;;;;;;;4.35;100.00;101901.88;1776952;79;21400;-60
2021/11/15 00:25:11;;;;;;;47.90;22.98;;;;;;;4.28;100.00;101903.12;1777568;79;21448;-61
2021/11/15 00:27:37;;;;;;;50.05;24.47;;;;;;;4.21;100.00;101902.62;1786022;78;20940;-62
2021/11/15 00:30:06;;;;;;;48.87;24.77;;;;;;;4.14;100.00;101899.45;1774649;79;21064;-60
2021/11/15 00:32:33;;;;;;;49.90;24.87;;;;;;;4.09;100.00;101899.40;1777033;79;21024;-61
2021/11/15 00:35:00;;;;;;;49.42;23.12;;;;;;;4.05;100.00;101902.00;1755441;79;21073;-61
2021/11/15 00:37:27;;;;;;;51.70;24.40;;;;;;;4.03;100.00;101911.29;1746984;82;21836;-60
2021/11/15 00:39:55;;;;;;;43.00;22.98;;;;;;;4.00;100.00;101912.13;1736352;82;21056;-60
2021/11/15 00:42:22;;;;;;;47.90;23.45;;;;;;;3.96;100.00;101907.67;1735141;82;21108;-60
2021/11/15 00:44:50;;;;;;;56.08;24.60;;;;;;;3.96;100.00;101910.74;1740003;82;21028;-61
2021/11/15 00:47:16;;;;;;;49.18;23.15;;;;;;;3.93;100.00;101907.64;1738407;80;21529;-60
2021/11/15 00:49:43;;;;;;;48.23;24.40;;;;;;;3.92;100.00;101909.84;1739180;80;21143;-61
2021/11/15 00:52:09;;;;;;;47.80;24.37;;;;;;;3.92;100.00;101909.84;1737888;80;21066;-61
2021/11/15 00:54:37;;;;;;;66.50;24.30;;;;;;;3.89;100.00;101904.50;1752006;81;21016;-61
2021/11/15 00:57:05;;;;;;;51.65;23.55;;;;;;;3.85;100.00;101897.36;1746057;81;22345;-61
2021/11/15 00:59:33;;;;;;;54.08;23.70;;;;;;;3.78;100.00;101896.84;1751795;79;21056;-61
2021/11/15 01:02:01;;;;;;;44.38;21.23;;;;;;;3.78;100.00;101896.84;1746467;80;21066;-61
2021/11/15 01:04:28;;;;;;;56.55;24.07;;;;;;;3.76;100.00;101894.61;1747203;80;21446;-62
2021/11/15 01:06:56;;;;;;;53.02;21.73;;;;;;;3.76;100.00;101894.19;1753238;79;21012;-62
2021/11/15 01:09:23;;;;;;;47.60;21.62;;;;;;;3.73;100.00;101893.70;1753784;79;20994;-61
2021/11/15 01:11:51;;;;;;;50.20;21.23;;;;;;;3.72;100.00;101894.58;1746247;81;21189;-61
2021/11/15 01:14:20;;;;;;;49.73;21.48;;;;;;;3.75;100.00;101896.81;1746253;81;21561;-61
2021/11/15 01:16:46;;;;;;;48.40;20.95;;;;;;;3.79;100.00;101897.30;1754572;79;21086;-61
2021/11/15 01:19:15;;;;;;;39.00;19.15;;;;;;;3.80;100.00;101893.34;1745428;81;21102;-61
2021/11/15 01:21:42;;;;;;;50.23;20.85;;;;;;;3.85;100.00;101892.05;1755899;80;21051;-61
2021/11/15 01:24:09;;;;;;;43.00;19.48;;;;;;;3.90;100.00;101900.98;1741197;81;21301;-61
2021/11/15 01:26:38;;;;;;;40.20;19.00;;;;;;;3.92;100.00;101896.58;1747243;79;21527;-61
2021/11/15 01:29:06;;;;;;;38.80;18.50;;;;;;;3.96;100.00;101895.73;1745172;80;21455;-60
2021/11/15 01:31:34;;;;;;;38.65;19.15;;;;;;;3.99;100.00;101905.05;1744761;81;21006;-61
2021/11/15 01:34:02;;;;;;;38.60;18.50;;;;;;;4.03;100.00;101909.05;1748110;81;21602;-61
2021/11/15 01:36:31;;;;;;;39.38;18.73;;;;;;;4.06;100.00;101900.70;1743432;80;21485;-61
2021/11/15 01:38:58;;;;;;;39.60;17.98;;;;;;;4.08;100.00;101907.33;1788108;78;21082;-61
2021/11/15 01:41:24;;;;;;;39.85;17.15;;;;;;;4.09;100.00;101913.09;1786237;78;21071;-60
2021/11/15 01:43:52;;;;;;;35.33;17.80;;;;;;;4.11;100.00;101910.05;1792649;78;21056;-61
2021/11/15 01:46:18;;;;;;;40.52;17.52;;;;;;;4.11;100.00;101904.73;1794341;77;21450;-57
2021/11/15 01:48:45;;;;;;;42.30;18.10;;;;;;;4.10;100.00;101913.12;1791000;78;21025;-57
2021/11/15 01:51:12;;;;;;;37.48;18.02;;;;;;;4.11;100.00;101910.05;1791085;78;21158;-56
2021/11/15 01:53:38;;;;;;;32.67;16.60;;;;;;;4.11;100.00;101912.70;1729860;80;21300;-56
2021/11/15 01:56:05;;;;;;;34.53;17.48;;;;;;;4.11;100.00;101912.70;1741016;80;21589;-56
2021/11/15 01:58:32;;;;;;;38.73;16.23;;;;;;;4.13;100.00;101918.91;1738197;81;21028;-56
2021/11/15 02:00:59;;;;;;;38.73;16.70;;;;;;;4.15;100.00;101907.87;1762905;79;21089;-58
2021/11/15 02:03:27;;;;;;;31.33;16.75;;;;;;;4.19;100.00;101915.41;1792151;79;21458;-57
2021/11/15 02:05:56;;;;;;;33.40;15.30;;;;;;;4.19;100.00;101915.41;1790252;78;21059;-58
2021/11/15 02:08:23;;;;;;;38.33;16.02;;;;;;;4.20;100.00;101930.46;1791904;79;21418;-57
2021/11/15 02:10:50;;;;;;;32.20;15.83;;;;;;;4.19;100.00;101918.97;1786035;78;21267;-57
2021/11/15 02:13:18;;;;;;;38.83;16.17;;;;;;;4.21;100.00;101916.34;1785175;77;21077;-57
2021/11/15 02:15:46;;;;;;;39.13;16.82;;;;;;;4.19;100.00;101916.31;1789363;78;21120;-57
2021/11/15 02:18:13;;;;;;;41.42;17.92;;;;;;;4.18;100.00;101922.50;1788360;78;21643;-57
2021/11/15 02:21:01;;;;;;;36.73;17.52;;;;;;;4.17;100.00;101930.02;1790638;78;21325;-58
2021/11/15 02:23:30;;;;;;;29.35;15.63;;;;;;;4.15;100.00;101929.11;1783576;78;21547;-59
2021/11/15 02:25:57;;;;;;;33.65;16.30;;;;;;;4.08;100.00;101934.78;1795776;78;21103;-57
2021/11/15 02:28:34;;;;;;;32.48;15.35;;;;;;;4.05;100.00;101933.84;1789170;79;21128;-57
2021/11/15 02:31:02;;;;;;;32.93;16.30;;;;;;;3.99;100.00;101935.56;1793546;78;20992;-58
2021/11/15 02:33:30;;;;;;;30.43;15.05;;;;;;;3.95;100.00;101931.10;1794728;77;21009;-57
2021/11/15 02:35:59;;;;;;;42.33;18.40;;;;;;;3.93;100.00;101928.87;1733436;80;21599;-57
2021/11/15 02:38:25;;;;;;;42.90;16.37;;;;;;;3.92;100.00;101921.78;1747580;80;21052;-58
2021/11/15 02:40:52;;;;;;;39.27;16.37;;;;;;;3.93;100.00;101920.91;1753748;81;21107;-57
2021/11/15 02:43:18;;;;;;;33.05;15.28;;;;;;;3.95;100.00;101921.81;1755583;79;21500;-56
2021/11/15 02:45:45;;;;;;;40.17;14.83;;;;;;;3.95;100.00;101927.12;1749770;80;21044;-57
2021/11/15 02:48:14;;;;;;;32.20;15.10;;;;;;;3.96;100.00;101935.53;1755439;80;21413;-58
2021/11/15 02:50:41;;;;;;;32.17;13.78;;;;;;;3.93;100.00;101930.20;1724998;80;21536;-58
2021/11/15 02:53:08;;;;;;;29.15;14.03;;;;;;;3.93;100.00;101932.84;1746352;79;21632;-58
2021/11/15 02:55:35;;;;;;;31.30;12.75;;;;;;;3.95;100.00;101937.73;1743222;80;21008;-57
2021/11/15 02:58:05;;;;;;;29.20;14.10;;;;;;;3.96;100.00;101939.52;1744013;80;21561;-58
2021/11/15 03:00:46;;;;;;;29.42;13.62;;;;;;;3.99;100.00;101940.88;1744942;81;21386;-58
2021/11/15 03:03:13;;;;;;;29.50;13.58;;;;;;;3.99;100.00;101940.88;1739942;80;21091;-58
2021/11/15 03:05:43;;;;;;;32.28;14.00;;;;;;;4.00;100.00;101945.30;1739508;81;21150;-57
2021/11/15 03:08:10;;;;;;;27.00;12.68;;;;;;;4.03;100.00;101943.55;1744453;80;21081;-57
2021/11/15 03:10:38;;;;;;;33.90;13.70;;;;;;;4.07;100.00;101955.98;1742738;80;20974;-57
2021/11/15 03:13:07;;;;;;;33.05;14.07;;;;;;;4.09;100.00;101948.92;1721003;81;21090;-62
2021/11/15 03:15:37;;;;;;;33.02;12.63;;;;;;;4.14;100.00;101949.44;1749975;81;21434;-56
2021/11/15 03:18:13;;;;;;;41.77;13.95;;;;;;;4.20;100.00;101949.05;1740490;80;21211;-56
2021/11/15 03:20:43;;;;;;;32.98;12.98;;;;;;;4.25;100.00;101952.21;1745941;79;21063;-60
2021/11/15 03:23:16;;;;;;;26.00;13.05;;;;;;;4.26;100.00;101949.13;1741915;80;21072;-57
2021/11/15 03:25:43;;;;;;;30.52;12.20;;;;;;;4.26;100.00;101953.98;1744451;80;21080;-61
2021/11/15 03:28:11;;;;;;;42.00;13.75;;;;;;;4.27;100.00;101955.77;1746929;81;21075;-60
2021/11/15 03:30:37;;;;;;;33.60;12.98;;;;;;;4.24;100.00;101957.07;1747177;79;21140;-61
2021/11/15 03:33:05;;;;;;;31.37;13.03;;;;;;;4.24;100.00;101957.07;1747203;80;21544;-61
2021/11/15 03:35:32;;;;;;;30.92;12.75;;;;;;;4.24;100.00;101958.85;1745801;80;21103;-62
2021/11/15 03:37:58;;;;;;;24.55;12.23;;;;;;;4.24;100.00;101958.85;1744091;81;21102;-61
2021/11/15 03:40:26;;;;;;;26.30;13.48;;;;;;;4.22;100.00;101956.62;1742427;79;21099;-61
2021/11/15 03:42:59;;;;;;;30.27;12.63;;;;;;;4.19;100.00;101953.91;1743504;81;21147;-61
2021/11/15 03:45:27;;;;;;;26.25;13.03;;;;;;;4.16;100.00;101957.44;1745779;80;21047;-60
2021/11/15 03:47:54;;;;;;;31.65;13.25;;;;;;;4.14;100.00;101952.09;1743252;80;21159;-61
2021/11/15 03:50:20;;;;;;;30.52;12.80;;;;;;;4.11;100.00;101952.52;1742760;80;21171;-61
2021/11/15 03:52:49;;;;;;;32.45;12.55;;;;;;;4.08;100.00;101953.78;1746434;80;21078;-57
2021/11/15 03:55:18;;;;;;;30.30;13.75;;;;;;;4.06;100.00;101956.44;1742924;80;21498;-57
2021/11/15 03:57:45;;;;;;;27.62;13.88;;;;;;;4.04;100.00;101973.20;1738810;81;21480;-62
2021/11/15 04:00:16;;;;;;;26.23;12.63;;;;;;;4.00;100.00;101967.86;1743981;79;21095;-61
2021/11/15 04:02:44;;;;;;;34.10;13.55;;;;;;;3.97;100.00;101976.22;1742558;80;21035;-62
2021/11/15 04:05:12;;;;;;;31.80;13.18;;;;;;;3.97;100.00;101976.22;1751006;81;21029;-57
2021/11/15 04:07:42;;;;;;;27.75;14.55;;;;;;;3.96;100.00;101975.34;1750315;80;21189;-58
2021/11/15 04:10:21;;;;;;;37.15;13.45;;;;;;;3.94;100.00;101980.16;1744447;79;21159;-56
2021/11/15 04:12:48;;;;;;;31.17;11.90;;;;;;;3.93;100.00;101973.98;1748261;80;21533;-58
2021/11/15 04:15:16;;;;;;;34.60;13.60;;;;;;;3.93;100.00;101979.70;1748372;81;21498;-57
2021/11/15 04:17:43;;;;;;;33.05;13.03;;;;;;;3.91;100.00;101986.34;1737838;80;21059;-58
2021/11/15 04:20:13;;;;;;;30.23;13.98;;;;;;;3.91;100.00;101982.78;1791525;77;21154;-58
2021/11/15 04:22:39;;;;;;;31.60;13.43;;;;;;;3.90;100.00;101977.93;1791283;78;21159;-58
2021/11/15 04:25:07;;;;;;;32.15;13.75;;;;;;;3.87;100.00;101972.13;1799148;78;21103;-56
2021/11/15 04:27:34;;;;;;;33.00;14.38;;;;;;;3.86;100.00;101986.28;1795041;78;20965;-59
2021/11/15 04:30:03;;;;;;;28.20;14.10;;;;;;;3.84;100.00;101981.81;1793855;78;21134;-61
2021/11/15 04:32:30;;;;;;;31.82;13.60;;;;;;;3.79;100.00;101983.52;1786174;78;21072;-61
2021/11/15 04:34:57;;;;;;;31.73;13.78;;;;;;;3.76;100.00;101990.11;1795785;78;21543;-62
2021/11/15 04:37:23;;;;;;;36.75;14.18;;;;;;;3.72;100.00;101990.50;1793310;77;21025;-61
2021/11/15 04:39:53;;;;;;;31.05;13.38;;;;;;;3.67;100.00;101982.92;1788895;77;21098;-61
2021/11/15 04:42:20;;;;;;;39.18;15.53;;;;;;;3.61;100.00;101987.70;1791966;78;21012;-62
2021/11/15 04:44:46;;;;;;;31.62;15.72;;;;;;;3.54;100.00;101977.47;1786776;78;20937;-61
2021/11/15 04:47:13;;;;;;;37.90;15.63;;;;;;;3.49;100.00;101988.42;1794406;78;21024;-61
2021/11/15 04:49:39;;;;;;;44.25;17.35;;;;;;;3.42;100.00;101983.45;1788090;78;20965;-61
2021/11/15 04:52:07;;;;;;;42.48;17.55;;;;;;;3.35;100.00;102001.48;1789769;78;21064;-61
2021/11/15 04:54:34;;;;;;;36.33;16.05;;;;;;;3.25;100.00;101999.12;1778456;79;21077;-61
2021/11/15 04:57:01;;;;;;;32.98;15.13;;;;;;;3.13;100.00;102002.47;1785064;77;21449;-61
2021/11/15 04:59:28;;;;;;;33.05;16.52;;;;;;;3.06;100.00;102008.55;1790714;78;21091;-61
2021/11/15 05:01:55;;;;;;;37.93;17.00;;;;;;;2.97;100.00;102002.66;1781499;78;21069;-61
2021/11/15 05:04:22;;;;;;;34.30;16.50;;;;;;;2.92;100.00;102007.00;1782184;78;21138;-61
2021/11/15 05:06:50;;;;;;;37.05;17.07;;;;;;;2.87;100.00;102009.97;1790166;77;21374;-61
2021/11/15 05:09:16;;;;;;;35.78;16.37;;;;;;;2.82;100.00;102017.87;1784010;79;21104;-61
2021/11/15 05:11:43;;;;;;;32.60;15.93;;;;;;;2.78;100.00;102023.98;1780395;79;21495;-61
2021/11/15 05:14:10;;;;;;;43.45;17.87;;;;;;;2.75;100.00;102037.14;1786435;78;21080;-61
2021/11/15 05:16:37;;;;;;;38.45;16.17;;;;;;;2.71;100.00;102032.24;1793833;77;20999;-57
2021/11/15 05:19:03;;;;;;;41.40;16.75;;;;;;;2.69;100.00;102048.54;1791881;78;20976;-59
2021/11/15 05:21:30;;;;;;;34.00;17.17;;;;;;;2.71;100.00;102052.52;1722971;81;21500;-58
2021/11/15 05:23:56;;;;;;;41.68;16.93;;;;;;;2.74;100.00;102063.17;1752567;79;21088;-57
2021/11/15 05:26:23;;;;;;;48.75;17.45;;;;;;;2.76;100.00;102068.51;1751692;79;21045;-56
2021/11/15 05:28:51;;;;;;;37.15;16.95;;;;;;;2.79;100.00;102076.51;1749736;80;21104;-58
2021/11/15 05:31:17;;;;;;;41.70;17.87;;;;;;;2.80;100.00;102077.87;1729394;80;21057;-57
2021/11/15 05:33:44;;;;;;;40.80;17.40;;;;;;;2.82;100.00;102067.28;1756248;80;21897;-57
2021/11/15 05:36:11;;;;;;;43.08;18.15;;;;;;;2.80;100.00;102059.33;1748552;80;22194;-57
2021/11/15 05:38:37;;;;;;;32.03;15.58;;;;;;;2.82;100.00;102065.55;1753137;80;21072;-57
2021/11/15 05:41:04;;;;;;;39.80;18.10;;;;;;;2.85;100.00;102076.20;1729334;80;21108;-57
2021/11/15 05:43:31;;;;;;;36.95;18.37;;;;;;;2.87;100.00;102078.85;1756918;79;21132;-58
2021/11/15 05:45:57;;;;;;;40.75;17.52;;;;;;;2.90;100.00;102092.19;1756579;79;21107;-57
2021/11/15 05:48:24;;;;;;;40.33;18.12;;;;;;;2.93;100.00;102092.23;1715860;82;21074;-58
2021/11/15 05:50:51;;;;;;;34.97;16.70;;;;;;;2.95;100.00;102098.45;1766210;79;21029;-58
2021/11/15 05:53:18;;;;;;;32.75;15.85;;;;;;;2.99;100.00;102098.09;1791801;79;21073;-57
2021/11/15 05:55:45;;;;;;;42.33;18.62;;;;;;;3.01;100.00;102106.95;1782021;78;21143;-58
2021/11/15 05:58:11;;;;;;;40.60;17.23;;;;;;;3.01;100.00;102116.23;1785632;79;21107;-58
2021/11/15 06:00:38;;;;;;;40.98;17.42;;;;;;;3.03;100.00;102110.52;1788505;78;21445;-57
2021/11/15 06:03:05;;;;;;;37.73;16.80;;;;;;;3.06;100.00;102111.91;1793062;79;21040;-57
2021/11/15 06:05:33;;;;;;;39.27;17.02;;;;;;;3.07;100.00;102118.98;1782916;77;21005;-58
2021/11/15 06:08:00;;;;;;;49.18;18.07;;;;;;;3.07;100.00;102126.94;1793215;78;21521;-58
2021/11/15 06:10:26;;;;;;;39.48;16.65;;;;;;;3.09;100.00;102125.20;1800596;78;21094;-58
2021/11/15 06:12:55;;;;;;;45.75;18.65;;;;;;;3.12;100.00;102134.98;1780922;78;20968;-61
2021/11/15 06:15:21;;;;;;;44.00;17.45;;;;;;;3.15;100.00;102128.41;1780675;77;21576;-61
2021/11/15 06:17:49;;;;;;;40.73;18.65;;;;;;;3.19;100.00;102140.84;1786494;78;21003;-62
2021/11/15 06:20:16;;;;;;;37.35;16.70;;;;;;;3.24;100.00;102140.93;1786771;78;21099;-61
2021/11/15 06:22:43;;;;;;;39.10;19.32;;;;;;;3.29;100.00;102135.27;1790048;79;21119;-62
2021/11/15 06:25:12;;;;;;;40.45;18.30;;;;;;;3.34;100.00;102133.59;1792883;77;21088;-61
2021/11/15 06:27:39;;;;;;;36.90;16.75;;;;;;;3.38;100.00;102136.74;1784354;79;21044;-63
2021/11/15 06:30:08;;;;;;;48.92;17.12;;;;;;;3.41;100.00;102129.28;1789754;78;21041;-62
2021/11/15 06:32:35;;;;;;;41.80;18.60;;;;;;;3.47;100.00;102137.78;1781514;77;21052;-61
2021/11/15 06:35:03;;;;;;;37.88;18.52;;;;;;;3.53;100.00;102143.19;1783521;79;21371;-62
2021/11/15 06:37:30;;;;;;;37.83;18.00;;;;;;;3.59;100.00;102141.95;1787150;79;21526;-62
2021/11/15 06:39:57;;;;;;;37.90;17.00;;;;;;;3.65;100.00;102142.08;1791965;78;21141;-61
2021/11/15 06:42:24;;;;;;;36.65;16.87;;;;;;;3.73;100.00;102142.17;1782799;77;21057;-62
2021/11/15 06:44:51;;;;;;;42.75;18.07;;;;;;;3.84;100.00;102161.81;1785394;78;21247;-58
2021/11/15 06:47:19;;;;;;;46.00;19.15;;;;;;;3.97;100.00;102156.69;1790283;78;21152;-58
2021/11/15 06:49:46;;;;;;;40.83;18.23;;;;;;;4.10;100.00;102160.44;1788892;78;21056;-58
2021/11/15 06:52:12;;;;;;;40.25;17.73;;;;;;;4.20;100.00;102151.72;1788650;78;21508;-58
2021/11/15 06:54:53;;;;;;;46.85;19.25;;;;;;;4.34;99.99;102177.59;1801279;78;21018;-60
2021/11/15 06:57:22;;;;;;;46.45;18.67;;;;;;;4.44;99.14;102175.50;1770366;78;21094;-58
2021/11/15 06:59:48;;;;;;;48.23;17.80;;;;;;;4.54;98.96;102172.53;1800504;78;21046;-59
2021/11/15 07:02:15;;;;;;;41.50;17.85;;;;;;;4.64;98.61;102149.21;1803864;77;21658;-59
2021/11/15 07:04:41;;;;;;;41.63;18.37;;;;;;;4.73;98.37;102165.25;1799647;78;21071;-58
2021/11/15 07:07:10;;;;;;;51.20;17.20;;;;;;;4.87;98.11;102181.36;1804013;78;21063;-62
2021/11/15 07:09:37;;;;;;;48.30;19.52;;;;;;;4.98;97.89;102178.82;1805270;78;21016;-62
2021/11/15 07:12:06;;;;;;;49.00;18.07;;;;;;;5.11;97.31;102181.63;1799801;78;21116;-61
2021/11/15 07:14:33;;;;;;;54.95;20.32;;;;;;;5.26;96.50;102184.88;1802319;78;21078;-62
2021/11/15 07:17:01;;;;;;;57.23;19.20;;;;;;;5.47;95.89;102188.17;1798831;78;21073;-62
2021/11/15 07:19:29;;;;;;;58.55;20.02;;;;;;;5.47;95.89;102188.17;1799446;78;21087;-63
2021/11/15 07:21:56;;;;;;;47.90;18.25;;;;;;;5.55;95.37;102190.48;1800550;77;21099;-58
2021/11/15 07:24:24;;;;;;;54.00;19.73;;;;;;;5.64;95.33;102183.03;1808079;78;20937;-61
2021/11/15 07:26:51;;;;;;;46.50;19.20;;;;;;;5.77;95.16;102185.78;1808363;78;21020;-61
2021/11/15 07:29:19;;;;;;;43.87;19.23;;;;;;;5.88;94.87;102196.09;1801375;78;21102;-63
2021/11/15 07:31:47;;;;;;;43.98;17.77;;;;;;;5.96;93.42;102195.70;1803532;77;21050;-61
2021/11/15 07:34:14;;;;;;;48.87;19.77;;;;;;;6.04;92.86;102193.13;1803429;78;22089;-62
2021/11/15 07:36:41;;;;;;;43.87;18.35;;;;;;;6.13;92.22;102194.97;1796340;78;21496;-62
2021/11/15 07:39:09;;;;;;;43.92;16.60;;;;;;;6.20;91.83;102194.11;1798194;77;21089;-63
2021/11/15 07:41:36;;;;;;;47.25;17.48;;;;;;;6.27;90.89;102199.92;1799065;77;22133;-60
2021/11/15 07:44:04;;;;;;;47.35;18.60;;;;;;;6.35;90.03;102200.42;1796766;78;21032;-58
2021/11/15 07:46:31;;;;;;;42.58;16.37;;;;;;;6.43;89.75;102202.69;1802953;78;21710;-59
2021/11/15 07:48:58;;;;;;;39.33;15.50;;;;;;;6.52;89.35;102214.75;1796410;78;21890;-60
2021/11/15 07:51:25;;;;;;;29.77;10.75;;;;;;;6.61;88.59;102217.00;1802015;77;21075;-58
2021/11/15 07:53:52;;;;;;;35.90;14.45;;;;;;;6.70;86.87;102213.94;1802875;78;21556;-58
2021/11/15 07:56:19;;;;;;;33.38;13.90;;;;;;;6.83;85.83;102212.21;1804618;78;21062;-62
2021/11/15 07:58:47;;;;;;;24.20;10.43;;;;;;;6.94;85.56;102229.59;1812210;77;20991;-62
2021/11/15 08:01:14;;;;;;;23.60;10.80;;;;;;;7.01;82.86;102238.05;1810246;77;22272;-59
2021/11/15 08:03:42;;;;;;;24.67;9.23;;;;;;;7.14;82.44;102229.64;1807806;77;21059;-63
2021/11/15 08:06:10;;;;;;;18.87;9.43;;;;;;;7.25;80.56;102228.80;1805053;78;21043;-61
2021/11/15 08:08:38;;;;;;;19.92;9.68;;;;;;;7.33;79.04;102227.03;1815188;77;21083;-61
2021/11/15 08:11:07;;;;;;;28.35;9.95;;;;;;;7.38;78.41;102242.59;1807058;78;21018;-59
2021/11/15 08:13:34;;;;;;;25.70;9.93;;;;;;;7.44;78.28;102250.64;1810196;77;21946;-62
2021/11/15 08:16:01;;;;;;;25.90;10.23;;;;;;;7.52;77.89;102259.09;1810916;78;21105;-62
2021/11/15 08:18:28;;;;;;;25.25;9.75;;;;;;;7.58;78.09;102219.97;1808387;77;21044;-61
2021/11/15 08:20:55;;;;;;;25.35;9.58;;;;;;;7.67;77.84;102243.11;1803002;78;21027;-62
2021/11/15 08:23:23;;;;;;;16.35;8.70;;;;;;;7.73;77.24;102237.77;1744328;80;21134;-62
2021/11/15 08:26:27;;;;;;;16.55;9.00;;;;;;;7.81;76.55;102263.58;1803205;78;21101;-64
2021/11/15 08:31:36;;;;;;;18.40;9.17;;;;;;;7.97;76.25;102244.47;1789037;77;27497;-62
2021/11/15 08:34:03;;;;;;;20.97;9.13;;;;;;;7.99;76.35;102242.69;1759799;79;21095;-60
2021/11/15 08:36:30;;;;;;;28.00;10.40;;;;;;;8.07;75.83;102255.58;1761839;79;21595;-58
2021/11/15 08:39:06;;;;;;;18.70;8.20;;;;;;;8.13;75.59;102250.23;1759035;79;21000;-58
2021/11/15 08:41:38;;;;;;;28.02;9.85;;;;;;;8.18;75.79;102236.87;1762750;79;21055;-57
2021/11/15 08:44:07;;;;;;;21.60;9.63;;;;;;;8.18;74.96;102226.19;1766061;79;20972;-59
2021/11/15 08:46:35;;;;;;;25.37;10.48;;;;;;;8.19;75.74;102245.33;1767655;80;21381;-62
2021/11/15 08:49:06;;;;;;;29.65;10.70;;;;;;;8.18;75.52;102235.54;1768728;79;21121;-58
2021/11/15 08:51:35;;;;;;;21.55;10.32;;;;;;;8.17;75.56;102263.16;1771008;79;21073;-64
2021/11/15 08:54:02;;;;;;;27.07;11.10;;;;;;;8.16;75.92;102252.02;1766649;79;21058;-62
2021/11/15 08:56:29;;;;;;;30.85;11.80;;;;;;;8.19;76.64;102265.38;1765012;79;21166;-62
2021/11/15 08:58:56;;;;;;;23.62;11.38;;;;;;;8.22;77.46;102233.30;1759942;80;21160;-62
2021/11/15 09:01:25;;;;;;;32.08;13.05;;;;;;;8.26;77.70;102243.09;1764581;80;21120;-63
2021/11/15 09:03:54;;;;;;;27.52;13.32;;;;;;;8.29;78.08;102241.78;1707179;81;21486;-59
2021/11/15 09:06:20;;;;;;;28.73;13.05;;;;;;;8.33;78.75;102260.47;1705920;83;20903;-58
2021/11/15 09:08:50;;;;;;;34.25;14.05;;;;;;;8.37;78.89;102240.86;1729567;80;20961;-59
2021/11/15 09:11:17;;;;;;;33.08;13.65;;;;;;;8.43;79.26;102273.82;1718136;81;22617;-61
2021/11/15 09:13:45;;;;;;;38.48;14.78;;;;;;;8.45;78.21;102259.09;1709305;81;21773;-63
2021/11/15 09:16:15;;;;;;;31.15;13.98;;;;;;;8.43;78.34;102258.21;1728069;80;21073;-61
2021/11/15 09:18:44;;;;;;;30.15;15.00;;;;;;;8.39;77.91;102290.73;1719636;81;21068;-63
2021/11/15 09:21:11;;;;;;;39.67;16.52;;;;;;;8.37;77.35;102251.09;1715713;82;21120;-58
2021/11/15 09:23:42;;;;;;;31.35;15.18;;;;;;;8.36;77.27;102255.99;1716760;82;21064;-62
2021/11/15 09:26:10;;;;;;;28.12;13.38;;;;;;;8.37;77.71;102267.13;1692072;82;21124;-61
2021/11/15 09:28:37;;;;;;;39.30;15.63;;;;;;;8.42;77.70;102245.74;1718963;82;21091;-64
2021/11/15 09:31:07;;;;;;;32.13;15.55;;;;;;;8.47;77.86;102241.27;1707569;82;21064;-57
2021/11/15 09:33:38;;;;;;;37.88;17.40;;;;;;;8.52;77.88;102244.88;1684134;83;21084;-57
2021/11/15 09:36:06;;;;;;;29.87;15.60;;;;;;;8.54;77.89;102245.77;1703188;83;21000;-59
2021/11/15 09:38:33;;;;;;;30.68;16.35;;;;;;;8.56;78.17;102260.02;1705154;83;21415;-60
2021/11/15 09:41:03;;;;;;;39.80;17.95;;;;;;;8.56;77.79;102277.83;1722302;82;21106;-57
2021/11/15 09:43:34;;;;;;;36.80;17.50;;;;;;;8.52;78.51;102247.98;1690576;84;21248;-59
2021/11/15 09:46:14;;;;;;;37.85;19.10;;;;;;;8.49;79.12;102255.52;1693529;83;21562;-58
2021/11/15 09:48:47;;;;;;;51.55;19.73;;;;;;;8.44;78.97;102241.28;1699002;84;21417;-59
2021/11/15 09:51:15;;;;;;;43.05;19.57;;;;;;;8.39;79.52;102245.30;1695129;84;21631;-61
2021/11/15 09:53:42;;;;;;;40.88;20.72;;;;;;;8.39;80.51;102253.77;1681223;83;21581;-63
2021/11/15 09:56:11;;;;;;;40.95;19.17;;;;;;;8.37;80.37;102236.85;1711342;83;21021;-63
2021/11/15 09:58:38;;;;;;;49.65;19.45;;;;;;;8.41;81.45;102238.62;1705688;83;21108;-64
2021/11/15 10:01:05;;;;;;;41.98;20.02;;;;;;;8.46;81.71;102248.41;1716668;81;21575;-63
2021/11/15 10:03:34;;;;;;;40.30;20.05;;;;;;;8.50;81.73;102231.94;1709283;83;21063;-63
2021/11/15 10:06:02;;;;;;;43.83;22.05;;;;;;;8.52;82.29;102233.28;1708688;83;21054;-61
2021/11/15 10:08:45;;;;;;;44.85;21.35;;;;;;;8.53;82.15;102250.67;1711894;83;21066;-64
2021/11/15 10:11:12;;;;;;;43.00;21.27;;;;;;;8.53;81.79;102270.72;1705979;83;21124;-64
2021/11/15 10:13:40;;;;;;;41.68;21.42;;;;;;;8.52;82.16;102266.27;1709245;83;20948;-63
2021/11/15 10:16:24;;;;;;;43.45;18.57;;;;;;;8.53;82.51;102265.38;1707812;83;21553;-64
2021/11/15 10:19:05;;;;;;;42.05;17.27;;;;;;;8.56;81.29;102244.41;1707818;83;21068;-64
2021/11/15 10:21:37;;;;;;;37.08;17.75;;;;;;;8.59;81.34;102245.30;1705212;83;21072;-60
2021/11/15 10:24:31;;;;;;;36.08;17.92;;;;;;;8.63;81.16;102260.90;1681508;83;21062;-58
2021/11/15 10:27:04;;;;;;;41.02;17.92;;;;;;;8.69;80.19;102255.95;1703655;83;21020;-59
2021/11/15 10:29:35;;;;;;;36.90;15.38;;;;;;;8.77;79.61;102255.50;1708563;83;21110;-59
2021/11/15 10:32:08;;;;;;;34.83;16.45;;;;;;;8.79;79.03;102295.16;1671878;83;20978;-59
2021/11/15 10:34:42;;;;;;;32.80;16.45;;;;;;;8.80;79.00;102254.16;1714315;82;21026;-60
2021/11/15 10:37:19;;;;;;;36.95;17.40;;;;;;;8.81;79.02;102288.02;1704719;82;21465;-59
2021/11/15 10:40:00;;;;;;;33.90;18.00;;;;;;;8.77;79.80;102272.89;1706640;82;21076;-60
2021/11/15 10:42:39;;;;;;;40.40;19.37;;;;;;;8.78;80.64;102267.08;1701161;82;22040;-60
2021/11/15 10:45:16;;;;;;;39.75;19.10;;;;;;;8.83;79.87;102285.33;1708656;81;21064;-60
2021/11/15 10:47:50;;;;;;;49.38;21.20;;;;;;;8.88;79.74;102250.98;1703736;82;21075;-58
2021/11/15 10:50:32;;;;;;;35.70;17.40;;;;;;;8.92;80.44;102272.38;1676974;82;21226;-64
2021/11/15 10:53:12;;;;;;;34.40;17.42;;;;;;;8.95;80.48;102275.94;1704370;82;21100;-63
2021/11/15 10:55:51;;;;;;;34.20;15.58;;;;;;;8.98;79.89;102272.38;1706986;82;21144;-63
2021/11/15 10:58:16;;;;;;;;;;;;;;;9.01;80.06;102275.03;1704110;82;21117;-63
2021/11/15 11:00:59;;;;;;;29.87;14.58;;;;;;;9.03;80.79;102258.52;1704340;82;20472;-63
2021/11/15 11:03:28;;;;;;;35.03;15.88;;;;;;;9.02;80.81;102255.41;1702020;81;21111;-63
2021/11/15 11:06:00;;;;;;;33.85;15.18;;;;;;;9.06;81.31;102241.55;1682485;83;21077;-65
2021/11/15 11:08:29;;;;;;;29.05;14.30;;;;;;;9.16;80.54;102299.03;1701944;82;22442;-65
2021/11/15 11:11:10;;;;;;;29.80;16.30;;;;;;;9.19;78.80;102249.97;1706616;82;21143;-64
2021/11/15 11:13:47;;;;;;;28.73;15.98;;;;;;;9.23;77.91;102270.45;1700375;82;21484;-63
2021/11/15 11:16:14;;;;;;;28.42;14.70;;;;;;;9.28;77.72;102262.41;1705648;82;21135;-63
2021/11/15 11:19:03;;;;;;;38.42;16.27;;;;;;;9.30;77.16;102257.94;1688984;83;21511;-63
2021/11/15 11:21:42;;;;;;;27.32;15.13;;;;;;;9.29;77.24;102270.88;1703405;81;22369;-62